createdAt,value
2018-01-24T00:00:23.385Z,6.90
2018-01-24T00:02:51.754Z,6.53
2018-01-24T00:05:20.133Z,4.83
2018-01-24T00:07:48.458Z,8.33
2018-01-24T00:10:17.199Z,6.60
2018-01-24T00:15:20.537Z,5.10
2018-01-24T00:20:21.612Z,6.70
2018-01-24T00:22:53.821Z,5.90
2018-01-24T00:25:22.171Z,5.53
2018-01-24T00:27:50.600Z,8.27
2018-01-24T00:30:19.441Z,5.43
2018-01-24T00:32:47.865Z,6.47
2018-01-24T00:35:16.243Z,6.37
2018-01-24T00:37:45.203Z,6.37
2018-01-24T00:40:13.600Z,5.43
2018-01-24T00:42:42.403Z,9.40
2018-01-24T00:45:10.769Z,7.40
2018-01-24T00:47:39.386Z,4.20
2018-01-24T00:50:08.693Z,6.90
2018-01-24T00:52:37.349Z,5.87
2018-01-24T00:55:05.702Z,6.93
2018-01-24T00:57:34.336Z,5.73
2018-01-24T01:00:02.685Z,6.10
2018-01-24T01:02:31.273Z,8.10
2018-01-24T01:04:59.718Z,6.63
2018-01-24T01:07:28.049Z,4.43
2018-01-24T01:10:00.095Z,4.27
2018-01-24T01:12:28.810Z,6.70
2018-01-24T01:14:57.563Z,4.10
2018-01-24T01:17:26.806Z,5.77
2018-01-24T01:19:55.145Z,5.30
2018-01-24T01:22:24.078Z,4.70
2018-01-24T01:24:52.842Z,3.73
2018-01-24T01:27:21.611Z,4.97
2018-01-24T01:29:49.948Z,5.60
2018-01-24T01:32:18.593Z,6.87
2018-01-24T01:34:48.713Z,6.13
2018-01-24T01:37:17.108Z,4.57
2018-01-24T01:39:46.226Z,4.87
2018-01-24T01:42:14.662Z,5.27
2018-01-24T01:44:43.340Z,5.80
2018-01-24T01:47:11.681Z,4.67
2018-01-24T01:49:40.047Z,5.33
2018-01-24T01:52:08.390Z,6.03
2018-01-24T01:54:37.869Z,6.00
2018-01-24T01:57:06.555Z,5.03
2018-01-24T01:59:34.916Z,4.93
2018-01-24T02:02:03.649Z,7.50
2018-01-24T02:04:33.819Z,5.60
2018-01-24T02:07:03.272Z,5.97
2018-01-24T02:09:31.585Z,5.43
2018-01-24T02:12:02.170Z,4.60
2018-01-24T02:14:30.551Z,4.83
2018-01-24T02:16:58.885Z,4.80
2018-01-24T02:19:27.236Z,4.03
2018-01-24T02:21:55.553Z,5.10
2018-01-24T02:24:25.189Z,4.33
2018-01-24T02:26:53.778Z,4.73
2018-01-24T02:29:26.129Z,3.73
2018-01-24T02:34:27.462Z,6.67
2018-01-24T02:36:56.274Z,4.83
2018-01-24T02:39:24.629Z,5.27
2018-01-24T02:41:56.838Z,5.70
2018-01-24T02:44:25.245Z,5.97
2018-01-24T02:46:54.589Z,5.80
2018-01-24T02:49:22.954Z,6.60
2018-01-24T02:51:51.307Z,4.23
2018-01-24T02:54:20.047Z,7.33
2018-01-24T02:56:48.422Z,5.10
2018-01-24T02:59:17.624Z,6.90
2018-01-24T03:01:46.698Z,4.60
2018-01-24T03:06:47.981Z,6.47
2018-01-24T03:09:16.974Z,6.10
2018-01-24T03:11:45.297Z,6.37
2018-01-24T03:14:14.057Z,4.90
2018-01-24T03:16:43.216Z,3.83
2018-01-24T03:19:11.564Z,6.53
2018-01-24T03:21:39.882Z,6.40
2018-01-24T03:24:08.267Z,7.17
2018-01-24T03:26:37.980Z,4.10
2018-01-24T03:29:06.316Z,5.30
2018-01-24T03:31:36.477Z,4.90
2018-01-24T03:36:38.239Z,4.40
2018-01-24T03:39:06.582Z,4.80
2018-01-24T03:41:34.903Z,6.03
2018-01-24T03:44:05.105Z,5.30
2018-01-24T03:46:34.121Z,4.63
2018-01-24T03:49:02.494Z,4.67
2018-01-24T03:51:31.738Z,5.53
2018-01-24T03:54:01.428Z,4.93
2018-01-24T03:56:29.841Z,9.30
2018-01-24T03:58:58.581Z,6.00
2018-01-24T04:01:28.777Z,4.53
2018-01-24T04:03:57.469Z,4.17
2018-01-24T04:06:25.840Z,5.57
2018-01-24T04:08:54.163Z,7.60
2018-01-24T04:11:22.513Z,7.23
2018-01-24T04:13:51.731Z,5.97
2018-01-24T04:16:21.141Z,4.23
2018-01-24T04:18:49.519Z,3.20
2018-01-24T04:21:18.258Z,5.70
2018-01-24T04:23:46.610Z,4.77
2018-01-24T04:26:14.978Z,3.63
2018-01-24T04:28:43.761Z,5.03
2018-01-24T04:31:12.098Z,5.03
2018-01-24T04:33:40.433Z,4.07
2018-01-24T04:36:09.153Z,4.60
2018-01-24T04:38:37.543Z,3.87
2018-01-24T04:41:06.109Z,3.80
2018-01-24T04:43:34.511Z,3.83
2018-01-24T04:46:02.853Z,4.00
2018-01-24T04:48:31.201Z,3.90
2018-01-24T04:51:00.993Z,4.30
2018-01-24T04:53:29.336Z,4.83
2018-01-24T04:55:57.685Z,4.87
2018-01-24T04:58:26.925Z,4.17
2018-01-24T05:00:55.271Z,3.00
2018-01-24T05:03:24.822Z,4.87
2018-01-24T05:05:54.057Z,3.23
2018-01-24T05:08:23.483Z,6.33
2018-01-24T05:10:51.831Z,3.40
2018-01-24T05:13:20.550Z,3.87
2018-01-24T05:15:48.911Z,4.33
2018-01-24T05:18:18.766Z,4.07
2018-01-24T05:20:50.527Z,3.07
2018-01-24T05:23:18.873Z,3.67
2018-01-24T05:25:47.224Z,4.83
2018-01-24T05:28:16.257Z,5.40
2018-01-24T05:30:44.678Z,3.60
2018-01-24T05:33:13.605Z,3.10
2018-01-24T05:35:43.746Z,3.60
2018-01-24T05:38:12.128Z,5.40
2018-01-24T05:40:40.451Z,3.93
2018-01-24T05:43:08.834Z,2.63
2018-01-24T05:45:38.464Z,3.30
2018-01-24T05:48:06.809Z,3.73
2018-01-24T05:50:35.172Z,4.70
2018-01-24T05:53:03.495Z,3.60
2018-01-24T05:55:32.163Z,2.90
2018-01-24T05:58:00.901Z,4.07
2018-01-24T06:00:29.241Z,3.37
2018-01-24T06:02:57.632Z,2.87
2018-01-24T06:05:25.976Z,3.97
2018-01-24T06:07:54.326Z,5.13
2018-01-24T06:10:22.704Z,3.80
2018-01-24T06:12:51.105Z,4.50
2018-01-24T06:15:19.846Z,2.87
2018-01-24T06:17:48.217Z,4.50
2018-01-24T06:20:16.646Z,3.13
2018-01-24T06:22:45.393Z,2.30
2018-01-24T06:25:14.168Z,4.53
2018-01-24T06:27:42.504Z,5.13
2018-01-24T06:30:11.161Z,3.40
2018-01-24T06:32:39.875Z,3.93
2018-01-24T06:35:08.218Z,4.20
2018-01-24T06:37:36.558Z,2.43
2018-01-24T06:40:05.723Z,3.13
2018-01-24T06:42:34.077Z,3.63
2018-01-24T06:45:02.798Z,4.40
2018-01-24T06:47:35.647Z,3.77
2018-01-24T06:50:04.024Z,3.80
2018-01-24T06:52:32.354Z,3.53
2018-01-24T06:55:00.704Z,2.50
2018-01-24T06:57:29.813Z,3.37
2018-01-24T06:59:58.925Z,3.90
2018-01-24T07:02:27.241Z,4.40
2018-01-24T07:04:55.870Z,3.77
2018-01-24T07:07:24.652Z,3.90
2018-01-24T07:09:53.401Z,2.50
2018-01-24T07:12:33.663Z,3.80
2018-01-24T07:15:02.065Z,3.60
2018-01-24T07:17:30.438Z,4.17
2018-01-24T07:19:58.813Z,5.40
2018-01-24T07:22:27.406Z,2.90
2018-01-24T07:24:56.272Z,2.80
2018-01-24T07:27:26.090Z,8.70
2018-01-24T07:29:54.902Z,4.23
2018-01-24T07:32:23.897Z,3.17
2018-01-24T07:34:52.339Z,4.20
2018-01-24T07:37:20.685Z,2.97
2018-01-24T07:39:49.225Z,5.20
2018-01-24T07:42:17.565Z,3.50
2018-01-24T07:44:45.905Z,3.53
2018-01-24T07:47:14.672Z,4.30
2018-01-24T07:49:43.010Z,7.87
2018-01-24T07:52:11.359Z,2.30
2018-01-24T07:54:39.784Z,5.17
2018-01-24T07:57:08.394Z,3.60
2018-01-24T07:59:36.727Z,4.80
2018-01-24T08:02:05.099Z,2.97
2018-01-24T08:04:33.440Z,4.13
2018-01-24T08:07:02.154Z,4.73
2018-01-24T08:09:30.531Z,2.63
2018-01-24T08:11:58.871Z,4.93
2018-01-24T08:14:27.601Z,4.20
2018-01-24T08:16:57.061Z,2.63
2018-01-24T08:19:25.793Z,5.67
2018-01-24T08:21:54.430Z,2.87
2018-01-24T08:24:22.765Z,5.47
2018-01-24T08:26:51.092Z,4.07
2018-01-24T08:29:20.228Z,3.80
2018-01-24T08:31:48.963Z,3.57
2018-01-24T08:34:17.754Z,3.93
2018-01-24T08:36:47.161Z,3.23
2018-01-24T08:39:15.899Z,4.13
2018-01-24T08:41:44.225Z,2.80
2018-01-24T08:44:13.089Z,4.17
2018-01-24T08:46:44.070Z,3.33
2018-01-24T08:49:12.945Z,2.23
2018-01-24T08:51:41.805Z,2.63
2018-01-24T08:54:10.252Z,3.00
2018-01-24T08:56:38.617Z,3.00
2018-01-24T08:59:07.566Z,3.57
2018-01-24T09:01:36.164Z,2.63
2018-01-24T09:04:04.609Z,2.67
2018-01-24T09:06:32.997Z,6.17
2018-01-24T09:09:01.342Z,2.50
2018-01-24T09:11:29.756Z,2.93
2018-01-24T09:13:58.144Z,5.00
2018-01-24T09:16:26.489Z,3.53
2018-01-24T09:18:54.808Z,3.10
2018-01-24T09:21:23.394Z,4.80
2018-01-24T09:23:52.404Z,3.40
2018-01-24T09:26:20.733Z,5.53
2018-01-24T09:28:49.080Z,10.53
2018-01-24T09:31:17.501Z,2.37
2018-01-24T09:33:45.857Z,3.83
2018-01-24T09:36:14.182Z,4.10
2018-01-24T09:38:43.454Z,1.80
2018-01-24T09:41:12.721Z,2.37
2018-01-24T09:43:41.084Z,2.87
2018-01-24T09:46:09.668Z,2.47
2018-01-24T09:48:38.321Z,1.70
2018-01-24T09:51:06.672Z,3.13
2018-01-24T09:53:35.007Z,3.40
2018-01-24T09:56:03.406Z,3.80
2018-01-24T09:58:31.735Z,3.50
2018-01-24T10:01:00.427Z,4.73
2018-01-24T10:03:29.185Z,1.70
2018-01-24T10:05:57.565Z,2.03
2018-01-24T10:08:25.922Z,3.00
2018-01-24T10:10:55.046Z,3.33
2018-01-24T10:13:23.825Z,2.20
2018-01-24T10:15:52.203Z,4.93
2018-01-24T10:18:20.536Z,4.00
2018-01-24T10:20:49.677Z,2.53
2018-01-24T10:23:18.284Z,2.80
2018-01-24T10:25:47.178Z,2.60
2018-01-24T10:28:15.866Z,2.10
2018-01-24T10:30:45.554Z,4.13
2018-01-24T10:33:13.886Z,2.47
2018-01-24T10:35:42.214Z,2.10
2018-01-24T10:38:10.684Z,2.83
2018-01-24T10:40:39.049Z,1.97
2018-01-24T10:43:07.722Z,5.67
2018-01-24T10:45:36.093Z,2.90
2018-01-24T10:48:04.433Z,6.07
2018-01-24T10:50:32.758Z,3.90
2018-01-24T10:53:01.125Z,2.47
2018-01-24T10:55:29.474Z,2.53
2018-01-24T10:57:58.189Z,2.20
2018-01-24T11:00:27.281Z,1.80
2018-01-24T11:02:55.605Z,4.70
2018-01-24T11:05:24.111Z,1.73
2018-01-24T11:07:52.529Z,1.70
2018-01-24T11:10:20.853Z,2.20
2018-01-24T11:12:49.167Z,3.13
2018-01-24T11:15:17.496Z,5.00
2018-01-24T11:17:46.198Z,2.20
2018-01-24T11:20:14.560Z,1.83
2018-01-24T11:22:42.889Z,1.77
2018-01-24T11:25:11.305Z,5.80
2018-01-24T11:27:39.638Z,2.00
2018-01-24T11:30:08.000Z,3.90
2018-01-24T11:32:36.711Z,3.50
2018-01-24T11:35:05.358Z,2.30
2018-01-24T11:37:33.814Z,4.63
2018-01-24T11:40:02.191Z,1.77
2018-01-24T11:42:30.533Z,4.23
2018-01-24T11:44:59.172Z,2.00
2018-01-24T11:47:27.517Z,3.33
2018-01-24T11:49:55.909Z,3.23
2018-01-24T11:52:24.274Z,2.03
2018-01-24T11:54:52.625Z,1.80
2018-01-24T11:57:21.045Z,2.93
2018-01-24T11:59:49.918Z,1.90
2018-01-24T12:02:18.274Z,2.20
2018-01-24T12:04:47.014Z,1.40
2018-01-24T12:07:15.478Z,3.03
2018-01-24T12:09:43.863Z,2.27
2018-01-24T12:12:12.205Z,2.13
2018-01-24T12:14:40.549Z,1.87
2018-01-24T12:17:09.573Z,1.50
2018-01-24T12:19:37.901Z,2.90
2018-01-24T12:22:06.217Z,2.23
2018-01-24T12:24:34.587Z,2.70
2018-01-24T12:27:02.953Z,1.87
2018-01-24T12:29:31.689Z,2.00
2018-01-24T12:32:00.313Z,2.07
2018-01-24T12:34:28.633Z,1.67
2018-01-24T12:36:56.985Z,2.10
2018-01-24T12:39:25.768Z,3.57
2018-01-24T12:41:54.483Z,2.13
2018-01-24T12:44:22.811Z,1.87
2018-01-24T12:46:51.160Z,2.20
2018-01-24T12:49:19.777Z,1.50
2018-01-24T12:51:48.114Z,2.77
2018-01-24T12:54:16.450Z,1.50
2018-01-24T12:56:45.194Z,1.67
2018-01-24T12:59:13.679Z,2.90
2018-01-24T13:01:42.034Z,2.30
2018-01-24T13:04:10.451Z,2.00
2018-01-24T13:06:38.841Z,1.70
2018-01-24T13:09:07.582Z,3.73
2018-01-24T13:11:35.961Z,2.03
2018-01-24T13:14:04.320Z,1.67
2018-01-24T13:16:32.660Z,1.67
2018-01-24T13:19:01.282Z,9.30
2018-01-24T13:21:29.931Z,3.03
2018-01-24T13:23:58.513Z,1.70
2018-01-24T13:26:27.302Z,2.87
2018-01-24T13:28:55.986Z,2.10
2018-01-24T13:31:24.349Z,1.53
2018-01-24T13:33:52.702Z,2.10
2018-01-24T13:36:21.038Z,1.63
2018-01-24T13:38:49.884Z,1.97
2018-01-24T13:41:18.281Z,3.80
2018-01-24T13:43:46.634Z,2.80
2018-01-24T13:46:14.949Z,4.77
2018-01-24T13:48:43.274Z,2.50
2018-01-24T13:51:11.630Z,2.10
2018-01-24T13:53:40.232Z,1.70
2018-01-24T13:56:08.567Z,2.23
2018-01-24T13:58:37.320Z,2.83
2018-01-24T14:01:05.674Z,1.93
2018-01-24T14:03:34.013Z,2.90
2018-01-24T14:06:02.993Z,2.20
2018-01-24T14:08:31.398Z,1.60
2018-01-24T14:11:00.062Z,2.00
2018-01-24T14:13:28.813Z,2.60
2018-01-24T14:15:57.157Z,2.57
2018-01-24T14:18:25.483Z,1.97
2018-01-24T14:20:53.866Z,1.97
2018-01-24T14:23:22.324Z,1.80
2018-01-24T14:25:51.140Z,3.73
2018-01-24T14:28:19.685Z,2.10
2018-01-24T14:30:48.011Z,2.17
2018-01-24T14:33:16.357Z,2.13
2018-01-24T14:35:44.694Z,5.00
2018-01-24T14:38:13.091Z,2.10
2018-01-24T14:40:41.413Z,1.87
2018-01-24T14:43:09.808Z,1.77
2018-01-24T14:45:38.951Z,2.10
2018-01-24T14:48:07.271Z,3.33
2018-01-24T14:50:35.657Z,1.90
2018-01-24T14:53:04.384Z,3.10
2018-01-24T14:55:32.745Z,2.00
2018-01-24T14:58:01.145Z,2.23
2018-01-24T15:00:29.489Z,2.80
2018-01-24T15:02:57.910Z,2.00
2018-01-24T15:05:26.287Z,2.07
2018-01-24T15:07:54.656Z,1.97
2018-01-24T15:10:23.018Z,1.93
2018-01-24T15:12:52.269Z,1.97
2018-01-24T15:15:20.593Z,2.00
2018-01-24T15:17:48.926Z,2.30
2018-01-24T15:20:17.297Z,1.93
2018-01-24T15:22:45.907Z,1.63
2018-01-24T15:25:14.695Z,1.70
2018-01-24T15:27:43.473Z,2.03
2018-01-24T15:30:11.833Z,1.73
2018-01-24T15:32:40.582Z,1.87
2018-01-24T15:35:08.996Z,2.37
2018-01-24T15:37:37.337Z,1.87
2018-01-24T15:40:05.696Z,1.70
2018-01-24T15:42:34.878Z,2.53
2018-01-24T15:45:03.220Z,1.83
2018-01-24T15:47:31.584Z,1.80
2018-01-24T15:49:59.984Z,2.30
2018-01-24T15:52:28.340Z,1.90
2018-01-24T15:54:56.726Z,1.60
2018-01-24T15:57:25.093Z,2.53
2018-01-24T15:59:53.468Z,1.67
2018-01-24T16:02:22.102Z,1.93
2018-01-24T16:04:50.688Z,2.20
2018-01-24T16:07:19.074Z,4.83
2018-01-24T16:09:47.454Z,2.07
2018-01-24T16:12:16.209Z,2.00
2018-01-24T16:14:44.538Z,1.60
2018-01-24T16:17:13.623Z,1.60
2018-01-24T16:19:41.998Z,3.90
2018-01-24T16:22:10.982Z,1.77
2018-01-24T16:24:39.350Z,3.13
2018-01-24T16:27:07.761Z,1.87
2018-01-24T16:29:36.084Z,1.60
2018-01-24T16:32:04.416Z,2.00
2018-01-24T16:34:32.794Z,2.43
2018-01-24T16:37:01.123Z,2.73
2018-01-24T16:39:29.451Z,2.83
2018-01-24T16:41:57.892Z,2.93
2018-01-24T16:44:26.227Z,1.67
2018-01-24T16:46:55.557Z,2.13
2018-01-24T16:49:23.936Z,3.53
2018-01-24T16:51:52.316Z,3.00
2018-01-24T16:54:20.655Z,3.10
2018-01-24T16:56:49.298Z,1.90
2018-01-24T16:59:17.674Z,1.70
2018-01-24T17:01:46.008Z,2.43
2018-01-24T17:04:14.354Z,1.90
2018-01-24T17:06:43.020Z,2.60
2018-01-24T17:09:11.409Z,1.70
2018-01-24T17:11:40.155Z,1.60
2018-01-24T17:14:08.498Z,2.00
2018-01-24T17:16:37.154Z,1.67
2018-01-24T17:19:05.944Z,1.77
2018-01-24T17:21:34.799Z,2.67
2018-01-24T17:24:03.234Z,1.80
2018-01-24T17:26:31.617Z,2.27
2018-01-24T17:28:59.965Z,2.10
2018-01-24T17:31:28.544Z,1.80
2018-01-24T17:33:56.910Z,2.10
2018-01-24T17:36:25.231Z,2.30
2018-01-24T17:38:53.575Z,1.77
2018-01-24T17:41:21.933Z,1.60
2018-01-24T17:43:50.255Z,1.47
2018-01-24T17:46:18.927Z,1.50
2018-01-24T17:48:47.318Z,1.80
2018-01-24T17:51:15.992Z,2.30
2018-01-24T17:53:44.709Z,2.60
2018-01-24T17:56:13.058Z,1.50
2018-01-24T17:58:41.827Z,1.80
2018-01-24T18:01:10.178Z,1.60
2018-01-24T18:03:38.505Z,1.67
2018-01-24T18:06:07.230Z,2.00
2018-01-24T18:08:35.573Z,1.70
2018-01-24T18:11:04.017Z,1.63
2018-01-24T18:13:32.338Z,1.60
2018-01-24T18:16:01.431Z,1.67
2018-01-24T18:18:29.786Z,1.53
2018-01-24T18:20:58.134Z,2.10
2018-01-24T18:23:26.513Z,1.73
2018-01-24T18:25:54.847Z,1.70
2018-01-24T18:28:23.208Z,1.53
2018-01-24T18:30:52.060Z,1.77
2018-01-24T18:33:20.382Z,2.40
2018-01-24T18:35:49.336Z,1.87
2018-01-24T18:38:17.737Z,1.67
2018-01-24T18:40:46.459Z,1.67
2018-01-24T18:43:14.845Z,1.90
2018-01-24T18:45:43.222Z,1.53
2018-01-24T18:48:11.570Z,1.77
2018-01-24T18:50:39.946Z,3.10
2018-01-24T18:53:08.717Z,1.80
2018-01-24T18:55:37.174Z,1.77
2018-01-24T18:58:05.524Z,2.80
2018-01-24T19:00:33.851Z,6.90
2018-01-24T19:03:02.218Z,41.47
2018-01-24T19:05:30.577Z,33.23
2018-01-24T19:07:59.038Z,26.00
2018-01-24T19:10:27.830Z,32.37
2018-01-24T19:12:56.172Z,22.30
2018-01-24T19:15:24.534Z,14.17
2018-01-24T19:17:52.910Z,15.40
2018-01-24T19:20:21.251Z,12.17
2018-01-24T19:22:49.574Z,12.50
2018-01-24T19:25:19.283Z,10.53
2018-01-24T19:27:48.037Z,10.60
2018-01-24T19:30:16.375Z,11.47
2018-01-24T19:32:45.108Z,8.70
2018-01-24T19:35:13.465Z,6.63
2018-01-24T19:37:41.963Z,7.13
2018-01-24T19:40:10.393Z,5.90
2018-01-24T19:42:39.575Z,6.23
2018-01-24T19:45:08.337Z,5.40
2018-01-24T19:47:36.766Z,5.23
2018-01-24T19:50:05.230Z,4.63
2018-01-24T19:52:34.092Z,5.80
2018-01-24T19:55:03.061Z,3.93
2018-01-24T19:57:31.851Z,3.37
2018-01-24T20:00:00.195Z,2.60
2018-01-24T20:02:28.513Z,4.50
2018-01-24T20:04:56.833Z,2.37
2018-01-24T20:07:25.910Z,3.50
2018-01-24T20:09:54.690Z,2.83
2018-01-24T20:12:23.037Z,3.83
2018-01-24T20:14:51.417Z,2.67
2018-01-24T20:17:19.770Z,4.10
2018-01-24T20:19:48.109Z,2.10
2018-01-24T20:22:16.832Z,2.03
2018-01-24T20:24:45.375Z,2.23
2018-01-24T20:27:13.840Z,1.97
2018-01-24T20:29:42.286Z,1.70
2018-01-24T20:32:10.705Z,2.33
2018-01-24T20:34:39.168Z,1.70
2018-01-24T20:37:07.782Z,2.00
2018-01-24T20:39:36.113Z,2.23
2018-01-24T20:42:04.606Z,3.23
2018-01-24T20:44:33.279Z,2.27
2018-01-24T20:47:01.717Z,3.10
2018-01-24T20:49:30.462Z,1.90
2018-01-24T20:51:58.801Z,2.00
2018-01-24T20:54:27.212Z,2.03
2018-01-24T20:56:56.241Z,2.60
2018-01-24T20:59:24.586Z,2.17
2018-01-24T21:01:53.416Z,3.43
2018-01-24T21:04:22.480Z,2.20
2018-01-24T21:06:51.181Z,1.93
2018-01-24T21:09:19.608Z,2.17
2018-01-24T21:11:47.925Z,2.40
2018-01-24T21:14:16.313Z,2.90
2018-01-24T21:16:44.645Z,2.07
2018-01-24T21:19:13.027Z,2.43
2018-01-24T21:21:41.361Z,2.43
2018-01-24T21:24:09.670Z,2.20
2018-01-24T21:26:38.014Z,2.70
2018-01-24T21:29:30.205Z,2.20
2018-01-24T21:35:21.961Z,3.27
2018-01-24T21:37:50.297Z,3.10
2018-01-24T21:40:18.730Z,2.37
2018-01-24T21:42:47.105Z,3.23
2018-01-24T21:45:15.504Z,3.20
2018-01-24T21:47:44.201Z,2.97
2018-01-24T21:50:13.502Z,2.37
2018-01-24T21:52:42.321Z,2.50
2018-01-24T21:55:10.655Z,2.60
2018-01-24T21:57:39.056Z,3.23
2018-01-24T22:00:07.725Z,3.20
2018-01-24T22:02:36.153Z,3.80
2018-01-24T22:05:05.621Z,2.77
2018-01-24T22:07:34.370Z,7.23
2018-01-24T22:10:02.688Z,3.50
2018-01-24T22:12:31.415Z,4.17
2018-01-24T22:14:59.799Z,3.67
2018-01-24T22:17:28.419Z,3.27
2018-01-24T22:19:56.766Z,4.50
2018-01-24T22:22:25.130Z,3.87
2018-01-24T22:24:53.457Z,3.40
2018-01-24T22:27:21.832Z,5.03
2018-01-24T22:29:50.221Z,4.20
2018-01-24T22:32:19.136Z,3.93
2018-01-24T22:34:47.612Z,3.80
2018-01-24T22:37:16.021Z,3.90
2018-01-24T22:39:44.364Z,5.80
2018-01-24T22:42:12.692Z,5.50
2018-01-24T22:44:41.615Z,4.63
2018-01-24T22:47:09.954Z,4.77
2018-01-24T22:49:38.281Z,4.93
2018-01-24T22:52:07.023Z,5.50
2018-01-24T22:54:35.365Z,4.43
2018-01-24T22:57:04.077Z,5.80
2018-01-24T22:59:32.385Z,5.67
2018-01-24T23:02:01.808Z,6.07
2018-01-24T23:04:30.217Z,4.43
2018-01-24T23:06:58.589Z,4.93
2018-01-24T23:09:26.989Z,4.90
2018-01-24T23:11:55.307Z,7.97
2018-01-24T23:14:23.625Z,5.77
2018-01-24T23:16:52.026Z,4.70
2018-01-24T23:19:20.355Z,7.03
2018-01-24T23:21:49.073Z,7.30
2018-01-24T23:24:17.427Z,6.40
2018-01-24T23:26:46.261Z,5.90
2018-01-24T23:29:14.908Z,5.20
2018-01-24T23:31:43.276Z,7.20
2018-01-24T23:34:12.252Z,9.23
2018-01-24T23:36:40.580Z,6.50
2018-01-24T23:39:09.698Z,5.70
2018-01-24T23:41:38.078Z,6.77
2018-01-24T23:44:06.688Z,5.73
2018-01-24T23:46:35.038Z,6.23
2018-01-24T23:49:03.429Z,6.13
2018-01-24T23:51:31.749Z,5.00
2018-01-24T23:54:00.089Z,6.10
2018-01-24T23:56:28.419Z,5.57
2018-01-24T23:58:56.758Z,5.90
